Huntley, MT (59037)

2:13 PM MDT on July 23, 2016 (GMT -0600)
MesoWest | | Change Station
Active Advisory: Fire Weather Warning Active Notice: Record Report

Elev 3000 ft 45.92 °N, 108.25 °W | Updated 27 minutes ago

Partly Cloudy
Partly Cloudy
84 °F
Feels Like 81 °F
N
11
Wind Variable Wind from WNW
Gusts 0.0 mph

Today
High -- | Low -- °F
--% Chance of Precip.
Yesterday
High -- | Low -- °F
Precip. -- in
Pressure 29.93 in
Visibility 10.0 miles
Clouds Few 7000 ft
Few 20000 ft
Heat Index 81 °F
Dew Point 39 °F
Humidity 20%
Rainfall in
Snow Depth Not available.
5:46 AM 8:52 PM
Waning Gibbous, 83% visible
METAR KBIL 231953Z 33015G21KT 10SM FEW070 FEW200 28/01 A3004 RMK AO2 PK WND 32028/1930 SLP135 T02830011
Pressure 29.93 in
Visibility 10.0 miles
Clouds Few 7000 ft
Few 20000 ft
Heat Index 81 °F
Dew Point 39 °F
Humidity 20%
Rainfall in
Snow Depth Not available.
5:46 AM 8:52 PM
Waning Gibbous, 83% visible
METAR KBIL 231953Z 33015G21KT 10SM FEW070 FEW200 28/01 A3004 RMK AO2 PK WND 32028/1930 SLP135 T02830011

10-Day Weather Forecast

Almanac

Astronomy

Jul. 23, 2016 Rise Set
Actual Time
Civil Twilight
Nautical Twilight
Astronomical Twilight
Moon
Length of Visible Light
Length of Day
Tomorrow will be .
, % of the Moon is Illuminated

Today's Extremes

State Highs State Lows

Community

WunderPhotos

Upload Photos

1,926,913 photos uploaded!

WunderBlog® & News

Nearby

Air Quality

  Air Quality AQ Index Pollutant
Not available.

Snow Depth

Station Depth Elevation

Earthquake Activity

City Distance Mag. Time & Date
Minimum magnitude displayed is 2.5.

Coastal Water Temperatures

Place Temperature

Stations

Nearby Weather Stations

Station Location Temp. Windchill Dew Point Humidity Wind Precip. Elev Updated Type
                   

Watches & Warnings

Fire Weather Warning
Issued: 1:46 AM MDT Jul. 23, 2016 – National Weather Service

... Red flag warning in effect from noon today to 9 PM MDT this
evening...

The National Weather Service in Billings has issued a red flag
warning... which is in effect from noon today to 9 PM MDT this
evening.

* Impacts: low humidities and strong gusty winds will create
erratic fire behavior and possible new fire starts.

* Affected area:
   in south central Mt... fire weather zone 129.

* Counties affected:
   in south central Mt... Big Horn... Carbon... Yellowstone.

* Wind: northwest 15 to 25 mph with gusts up to 35 mph.

* Humidity: as low as 18 percent.

Precautionary/preparedness actions...

A red flag warning means that critical fire weather conditions are
either occurring now... or will shortly. A combination of strong
winds... low relative humidity... and warm temperatures can
contribute to extreme fire behavior.




Http://weather.Gov/Billings